createdAt,value
2019-04-20T00:00:01.688Z,9.79
2019-04-20T00:00:59.613Z,9.93
2019-04-20T00:02:04.345Z,9.86
2019-04-20T00:02:59.745Z,9.82
2019-04-20T00:03:57.077Z,9.94
2019-04-20T00:04:57.146Z,9.94
2019-04-20T00:05:57.348Z,9.91
2019-04-20T00:06:57.958Z,9.93
2019-04-20T00:07:57.220Z,9.93
2019-04-20T00:09:04.763Z,9.89
2019-04-20T00:10:05.379Z,9.94
2019-04-20T00:11:07.457Z,9.71
2019-04-20T00:12:06.892Z,9.78
2019-04-20T00:13:08.815Z,9.85
2019-04-20T00:14:05.606Z,9.97
2019-04-20T00:14:58.660Z,9.94
2019-04-20T00:15:57.843Z,9.96
2019-04-20T00:16:56.939Z,10.00
2019-04-20T00:18:01.850Z,9.99
2019-04-20T00:19:00.742Z,9.97
2019-04-20T00:20:00.402Z,9.96
2019-04-20T00:21:03.992Z,10.01
2019-04-20T00:22:02.930Z,10.06
2019-04-20T00:22:58.217Z,10.12
2019-04-20T00:24:01.101Z,10.10
2019-04-20T00:25:04.028Z,10.10
2019-04-20T00:26:08.344Z,10.09
2019-04-20T00:27:14.250Z,10.01
2019-04-20T00:28:16.329Z,9.99
2019-04-20T00:29:17.701Z,9.89
2019-04-20T00:30:20.607Z,9.89
2019-04-20T00:31:12.373Z,9.82
2019-04-20T00:32:11.445Z,9.85
2019-04-20T00:33:07.745Z,9.79
2019-04-20T00:34:06.647Z,9.81
2019-04-20T00:34:57.989Z,9.73
2019-04-20T00:35:57.004Z,9.71
2019-04-20T00:36:58.033Z,9.64
2019-04-20T00:37:57.067Z,9.61
2019-04-20T00:39:00.976Z,9.52
2019-04-20T00:39:57.880Z,9.46
2019-04-20T00:41:02.766Z,9.24
2019-04-20T00:42:03.564Z,9.24
2019-04-20T00:42:59.815Z,9.04
2019-04-20T00:43:57.739Z,9.04
2019-04-20T00:45:05.679Z,8.93
2019-04-20T00:46:01.986Z,8.88
2019-04-20T00:47:09.229Z,8.87
2019-04-20T00:48:03.254Z,8.73
2019-04-20T00:49:07.076Z,8.71
2019-04-20T00:50:14.144Z,8.68
2019-04-20T00:51:20.285Z,8.63
2019-04-20T00:52:24.163Z,8.53
2019-04-20T00:53:09.249Z,8.51
2019-04-20T00:54:00.096Z,8.51
2019-04-20T00:54:56.483Z,8.50
2019-04-20T00:55:57.114Z,8.48
2019-04-20T00:57:57.229Z,8.57
2019-04-20T00:59:08.276Z,8.50
2019-04-20T01:00:11.086Z,8.44
2019-04-20T01:01:13.022Z,8.33
2019-04-20T01:02:13.104Z,8.37
2019-04-20T01:03:09.575Z,8.26
2019-04-20T01:04:17.554Z,8.18
2019-04-20T01:05:11.129Z,8.18
2019-04-20T01:06:12.123Z,8.08
2019-04-20T01:07:07.294Z,8.03
2019-04-20T01:07:57.002Z,7.93
2019-04-20T01:08:53.033Z,7.97
2019-04-20T01:09:52.014Z,7.89
2019-04-20T01:10:54.513Z,7.84
2019-04-20T01:11:52.931Z,7.82
2019-04-20T01:12:58.833Z,7.77
2019-04-20T01:14:00.169Z,7.74
2019-04-20T01:14:57.279Z,7.69
2019-04-20T01:15:58.862Z,7.60
2019-04-20T01:17:00.078Z,7.63
2019-04-20T01:17:52.696Z,7.56
2019-04-20T01:18:51.657Z,7.53
2019-04-20T01:19:52.707Z,7.47
2019-04-20T01:20:51.653Z,7.31
2019-04-20T01:21:59.967Z,7.34
2019-04-20T01:23:00.189Z,7.27
2019-04-20T01:23:57.492Z,7.19
2019-04-20T01:24:53.673Z,7.09
2019-04-20T01:25:56.883Z,7.05
2019-04-20T01:26:55.940Z,6.94
2019-04-20T01:28:07.748Z,6.97
2019-04-20T01:29:06.263Z,6.90
2019-04-20T01:30:03.391Z,6.87
2019-04-20T01:31:06.474Z,6.87
2019-04-20T01:32:05.661Z,6.90
2019-04-20T01:33:03.922Z,6.79
2019-04-20T01:33:58.467Z,6.76
2019-04-20T01:35:04.502Z,6.71
2019-04-20T01:36:09.014Z,6.63
2019-04-20T01:37:09.527Z,6.69
2019-04-20T01:38:12.447Z,6.71
2019-04-20T01:39:02.713Z,6.61
2019-04-20T01:39:56.789Z,6.71
2019-04-20T01:40:52.763Z,6.72
2019-04-20T01:41:51.972Z,6.65
2019-04-20T01:42:51.407Z,6.61
2019-04-20T01:43:52.257Z,6.59
2019-04-20T01:44:53.567Z,6.46
2019-04-20T01:45:58.690Z,6.48
2019-04-20T01:46:57.052Z,6.48
2019-04-20T01:47:55.862Z,6.50
2019-04-20T01:48:52.646Z,6.48
2019-04-20T01:49:59.740Z,6.47
2019-04-20T01:51:02.421Z,6.53
2019-04-20T01:52:03.819Z,6.43
2019-04-20T01:53:03.519Z,6.48
2019-04-20T01:54:06.764Z,6.46
2019-04-20T01:55:13.075Z,6.46
2019-04-20T01:56:09.892Z,6.41
2019-04-20T01:57:04.144Z,6.43
2019-04-20T01:58:12.200Z,6.35
2019-04-20T01:59:10.643Z,6.35
2019-04-20T02:00:01.816Z,6.30
2019-04-20T02:00:54.797Z,6.16
2019-04-20T02:01:57.715Z,6.07
2019-04-20T02:02:58.346Z,5.98
2019-04-20T02:03:55.420Z,5.88
2019-04-20T02:04:52.533Z,5.89
2019-04-20T02:05:56.461Z,5.75
2019-04-20T02:06:57.924Z,5.75
2019-04-20T02:07:55.068Z,5.64
2019-04-20T02:08:58.221Z,5.66
2019-04-20T02:09:58.257Z,5.59
2019-04-20T02:10:57.049Z,5.64
2019-04-20T02:11:53.723Z,5.60
2019-04-20T02:12:56.053Z,5.66
2019-04-20T02:13:57.327Z,5.56
2019-04-20T02:14:57.173Z,5.60
2019-04-20T02:15:56.397Z,5.57
2019-04-20T02:17:03.131Z,5.55
2019-04-20T02:18:10.246Z,5.52
2019-04-20T02:19:12.024Z,5.37
2019-04-20T02:20:12.628Z,5.27
2019-04-20T02:21:09.843Z,5.30
2019-04-20T02:22:06.265Z,5.12
2019-04-20T02:23:03.137Z,5.12
2019-04-20T02:23:57.793Z,5.12
2019-04-20T02:24:52.771Z,5.14
2019-04-20T02:25:52.153Z,5.10
2019-04-20T02:26:51.957Z,5.14
2019-04-20T02:27:57.804Z,5.17
2019-04-20T02:29:18.997Z,5.14
2019-04-20T02:30:21.689Z,5.19
2019-04-20T02:33:42.523Z,5.22
2019-04-20T02:34:29.228Z,5.23
2019-04-20T02:35:25.050Z,5.23
2019-04-20T02:36:38.211Z,5.19
2019-04-20T02:37:26.744Z,5.22
2019-04-20T02:38:36.872Z,5.19
2019-04-20T02:40:30.995Z,5.12
2019-04-20T02:41:31.567Z,5.17
2019-04-20T02:42:24.503Z,5.12
2019-04-20T02:43:32.914Z,5.02
2019-04-20T02:44:36.165Z,5.02
2019-04-20T02:45:34.856Z,5.02
2019-04-20T02:46:26.478Z,5.02
2019-04-20T02:47:40.491Z,4.94
2019-04-20T02:48:21.650Z,4.86
2019-04-20T02:50:19.113Z,4.88
2019-04-20T02:51:22.599Z,4.73
2019-04-20T02:52:32.700Z,4.65
2019-04-20T02:54:18.854Z,4.64
2019-04-20T02:55:26.831Z,4.65
2019-04-20T02:58:27.160Z,4.52
2019-04-20T02:59:47.536Z,4.57
2019-04-20T03:00:17.813Z,4.61
2019-04-20T03:01:13.283Z,4.62
2019-04-20T03:02:13.342Z,4.52
2019-04-20T03:03:07.082Z,4.52
2019-04-20T03:03:57.656Z,4.57
2019-04-20T03:05:08.152Z,4.65
2019-04-20T03:06:05.707Z,4.72
2019-04-20T03:07:09.068Z,4.79
2019-04-20T03:08:12.795Z,4.83
2019-04-20T03:09:17.688Z,4.91
2019-04-20T03:10:13.177Z,4.92
2019-04-20T03:11:16.129Z,4.95
2019-04-20T03:12:21.717Z,4.94
2019-04-20T03:13:14.397Z,4.91
2019-04-20T03:14:09.556Z,4.98
2019-04-20T03:15:04.536Z,4.96
2019-04-20T03:16:11.058Z,4.94
2019-04-20T03:17:15.588Z,4.88
2019-04-20T03:18:14.954Z,4.86
2019-04-20T03:19:10.894Z,4.92
2019-04-20T03:20:06.158Z,4.89
2019-04-20T03:21:11.251Z,4.92
2019-04-20T03:22:14.853Z,4.79
2019-04-20T03:23:26.408Z,4.79
2019-04-20T03:24:20.409Z,4.76
2019-04-20T03:25:11.377Z,4.69
2019-04-20T03:26:13.797Z,4.76
2019-04-20T03:27:09.618Z,4.72
2019-04-20T03:28:10.834Z,4.84
2019-04-20T03:29:07.866Z,4.75
2019-04-20T03:30:03.702Z,4.72
2019-04-20T03:32:40.231Z,4.77
2019-04-20T03:33:28.613Z,4.64
2019-04-20T03:34:37.713Z,4.58
2019-04-20T03:35:29.817Z,4.62
2019-04-20T03:36:20.986Z,4.59
2019-04-20T03:37:13.158Z,4.54
2019-04-20T03:38:10.441Z,4.59
2019-04-20T03:39:10.051Z,4.59
2019-04-20T03:40:05.489Z,4.57
2019-04-20T03:41:03.985Z,4.57
2019-04-20T03:41:54.695Z,4.54
2019-04-20T03:42:50.697Z,4.52
2019-04-20T03:43:50.052Z,4.50
2019-04-20T03:44:57.075Z,4.34
2019-04-20T03:45:57.981Z,4.39
2019-04-20T03:46:57.038Z,4.39
2019-04-20T03:48:03.081Z,4.34
2019-04-20T03:49:07.408Z,4.26
2019-04-20T03:50:10.947Z,4.18
2019-04-20T03:51:14.736Z,4.24
2019-04-20T03:52:09.639Z,4.19
2019-04-20T03:53:12.914Z,4.22
2019-04-20T03:54:12.521Z,4.34
2019-04-20T03:55:12.871Z,4.28
2019-04-20T03:56:09.679Z,4.28
2019-04-20T03:57:17.056Z,4.36
2019-04-20T03:58:08.824Z,4.33
2019-04-20T03:59:09.064Z,4.40
2019-04-20T04:00:14.959Z,4.42
2019-04-20T04:01:14.793Z,4.50
2019-04-20T04:02:37.726Z,4.52
2019-04-20T04:03:20.238Z,4.57
2019-04-20T04:04:12.148Z,4.47
2019-04-20T04:05:08.537Z,4.59
2019-04-20T04:06:05.475Z,4.50
2019-04-20T04:06:55.845Z,4.52
2019-04-20T04:08:04.286Z,4.44
2019-04-20T04:09:06.390Z,4.40
2019-04-20T04:10:08.131Z,4.42
2019-04-20T04:11:12.379Z,4.37
2019-04-20T04:12:03.507Z,4.37
2019-04-20T04:12:51.756Z,4.32
2019-04-20T04:13:50.390Z,4.33
2019-04-20T04:14:49.720Z,4.24
2019-04-20T04:15:55.705Z,4.19
2019-04-20T04:16:55.666Z,4.21
2019-04-20T04:17:51.484Z,4.21
2019-04-20T04:19:02.830Z,4.22
2019-04-20T04:19:55.789Z,4.29
2019-04-20T04:20:58.719Z,4.25
2019-04-20T04:22:04.191Z,4.18
2019-04-20T04:23:10.286Z,4.21
2019-04-20T04:24:07.418Z,4.21
2019-04-20T04:25:01.795Z,4.19
2019-04-20T04:26:08.723Z,4.22
2019-04-20T04:27:03.594Z,4.24
2019-04-20T04:28:07.001Z,4.25
2019-04-20T04:29:14.459Z,4.18
2019-04-20T04:30:08.030Z,4.25
2019-04-20T04:32:21.159Z,4.32
2019-04-20T04:33:33.980Z,4.37
2019-04-20T04:34:09.317Z,4.39
2019-04-20T04:35:05.568Z,4.37
2019-04-20T04:36:04.640Z,4.46
2019-04-20T04:37:15.204Z,4.42
2019-04-20T04:38:09.582Z,4.46
2019-04-20T04:39:15.325Z,4.52
2019-04-20T04:40:22.521Z,4.37
2019-04-20T04:41:16.403Z,4.42
2019-04-20T04:42:19.232Z,4.52
2019-04-20T04:43:10.290Z,4.46
2019-04-20T04:44:09.669Z,4.52
2019-04-20T04:44:58.191Z,4.54
2019-04-20T04:45:51.364Z,4.57
2019-04-20T04:46:54.692Z,4.64
2019-04-20T04:47:51.422Z,4.67
2019-04-20T04:48:52.535Z,4.65
2019-04-20T04:50:01.068Z,4.61
2019-04-20T04:50:57.458Z,4.77
2019-04-20T04:52:00.164Z,4.83
2019-04-20T04:52:59.718Z,4.80
2019-04-20T04:53:58.058Z,4.79
2019-04-20T04:54:56.641Z,4.91
2019-04-20T04:55:57.731Z,4.94
2019-04-20T04:56:50.467Z,4.96
2019-04-20T04:57:49.539Z,4.99
2019-04-20T04:58:49.589Z,5.02
2019-04-20T04:59:49.215Z,5.05
2019-04-20T05:00:49.488Z,5.13
2019-04-20T05:01:53.091Z,5.13
2019-04-20T05:02:53.802Z,5.22
2019-04-20T05:04:14.740Z,5.19
2019-04-20T05:05:12.918Z,5.37
2019-04-20T05:06:07.592Z,5.28
2019-04-20T05:07:03.867Z,5.32
2019-04-20T05:07:59.261Z,5.40
2019-04-20T05:08:55.105Z,5.52
2019-04-20T05:09:50.683Z,5.56
2019-04-20T05:10:49.975Z,5.73
2019-04-20T05:11:56.818Z,5.74
2019-04-20T05:12:51.380Z,5.74
2019-04-20T05:13:56.669Z,5.89
2019-04-20T05:15:01.030Z,6.06
2019-04-20T05:16:04.981Z,6.59
2019-04-20T05:17:07.538Z,7.45
2019-04-20T05:18:11.922Z,8.33
2019-04-20T05:19:13.412Z,9.06
2019-04-20T05:20:10.551Z,9.34
2019-04-20T05:21:12.557Z,9.76
2019-04-20T05:22:26.173Z,9.85
2019-04-20T05:23:07.619Z,10.18
2019-04-20T05:24:08.536Z,10.58
2019-04-20T05:25:11.969Z,10.96
2019-04-20T05:26:13.795Z,11.34
2019-04-20T05:27:15.950Z,11.62
2019-04-20T05:28:05.283Z,11.70
2019-04-20T05:28:59.025Z,11.77
2019-04-20T05:29:50.864Z,11.97
2019-04-20T05:30:55.877Z,12.16
2019-04-20T05:31:56.252Z,12.29
2019-04-20T05:32:57.823Z,12.45
2019-04-20T05:34:15.617Z,12.45
2019-04-20T05:35:15.101Z,12.60
2019-04-20T05:36:13.434Z,12.70
2019-04-20T05:37:15.068Z,12.75
2019-04-20T05:38:11.914Z,12.62
2019-04-20T05:39:14.436Z,13.03
2019-04-20T05:40:12.310Z,13.36
2019-04-20T05:41:08.842Z,13.58
2019-04-20T05:42:14.948Z,13.49
2019-04-20T05:43:10.634Z,13.52
2019-04-20T05:43:59.451Z,13.46
2019-04-20T05:45:01.863Z,13.84
2019-04-20T05:46:03.263Z,14.06
2019-04-20T05:47:13.672Z,14.07
2019-04-20T05:48:08.773Z,14.06
2019-04-20T05:49:17.698Z,14.04
2019-04-20T05:50:03.598Z,14.27
2019-04-20T05:51:12.751Z,14.43
2019-04-20T05:52:24.392Z,14.39
2019-04-20T05:53:14.492Z,14.42
2019-04-20T05:54:16.476Z,14.64
2019-04-20T05:55:09.960Z,14.74
2019-04-20T05:56:02.652Z,14.93
2019-04-20T05:57:15.014Z,14.88
2019-04-20T05:58:08.821Z,15.02
2019-04-20T05:59:11.559Z,15.01
2019-04-20T06:00:13.640Z,15.21
2019-04-20T06:01:16.199Z,15.31
2019-04-20T06:02:13.239Z,15.27
2019-04-20T06:03:05.614Z,15.49
2019-04-20T06:04:05.462Z,15.52
2019-04-20T06:06:10.022Z,15.67
2019-04-20T06:07:09.445Z,15.63
2019-04-20T06:08:15.675Z,15.60
2019-04-20T06:09:14.238Z,15.68
2019-04-20T06:10:16.804Z,15.81
2019-04-20T06:12:27.964Z,15.89
2019-04-20T06:13:06.337Z,15.93
2019-04-20T06:13:59.969Z,16.12
2019-04-20T06:15:04.454Z,16.37
2019-04-20T06:16:10.328Z,16.59
2019-04-20T06:17:08.866Z,16.83
2019-04-20T06:18:06.970Z,17.00
2019-04-20T06:19:22.337Z,16.99
2019-04-20T06:20:12.612Z,17.32
2019-04-20T06:21:21.054Z,17.22
2019-04-20T06:22:11.296Z,16.85
2019-04-20T06:23:14.249Z,16.75
2019-04-20T06:24:12.740Z,16.95
2019-04-20T06:25:21.970Z,17.07
2019-04-20T06:26:28.230Z,17.43
2019-04-20T06:27:11.506Z,17.55
2019-04-20T06:28:06.624Z,17.91
2019-04-20T06:29:07.051Z,18.13
2019-04-20T06:30:08.602Z,18.24
2019-04-20T06:31:09.006Z,18.43
2019-04-20T06:32:14.024Z,18.43
2019-04-20T06:33:12.864Z,18.24
2019-04-20T06:35:28.997Z,18.25
2019-04-20T06:36:26.184Z,18.52
2019-04-20T06:37:05.785Z,18.68
2019-04-20T06:38:32.591Z,19.02
2019-04-20T06:39:16.049Z,19.20
2019-04-20T06:40:29.539Z,18.67
2019-04-20T06:41:21.099Z,18.54
2019-04-20T06:43:05.458Z,19.17
2019-04-20T06:44:18.028Z,19.23
2019-04-20T06:45:15.988Z,19.11
2019-04-20T06:46:09.806Z,18.54
2019-04-20T06:47:27.246Z,17.67
2019-04-20T06:48:13.774Z,17.67
2019-04-20T06:49:18.422Z,17.73
2019-04-20T06:50:07.503Z,17.74
2019-04-20T06:51:02.068Z,18.33
2019-04-20T06:52:17.169Z,18.55
2019-04-20T06:53:18.165Z,18.65
2019-04-20T06:53:59.704Z,18.68
2019-04-20T06:55:05.636Z,18.43
2019-04-20T06:56:15.542Z,18.68
2019-04-20T06:57:12.982Z,18.70
2019-04-20T06:58:33.534Z,19.05
2019-04-20T06:59:11.956Z,19.10
2019-04-20T07:00:12.756Z,19.11
2019-04-20T07:01:15.286Z,19.14
2019-04-20T07:02:17.311Z,19.02
2019-04-20T07:03:28.316Z,19.18
2019-04-20T07:04:37.594Z,19.25
2019-04-20T07:05:12.806Z,19.65
2019-04-20T07:06:29.356Z,19.72
2019-04-20T07:07:14.364Z,19.79
2019-04-20T07:08:28.895Z,19.70
2019-04-20T07:09:19.949Z,19.79
2019-04-20T07:10:14.761Z,19.87
2019-04-20T07:11:12.576Z,19.80
2019-04-20T07:12:06.380Z,19.78
2019-04-20T07:13:02.699Z,19.35
2019-04-20T07:13:58.750Z,19.31
2019-04-20T07:14:58.957Z,19.13
2019-04-20T07:16:04.114Z,19.24
2019-04-20T07:17:24.434Z,18.91
2019-04-20T07:18:09.488Z,18.87
2019-04-20T07:19:09.172Z,19.36
2019-04-20T07:20:04.562Z,19.31
2019-04-20T07:21:15.323Z,19.33
2019-04-20T07:23:21.350Z,18.97
2019-04-20T07:24:19.587Z,18.42
2019-04-20T07:25:08.016Z,18.54
2019-04-20T07:26:17.072Z,18.83
2019-04-20T07:27:06.472Z,18.84
2019-04-20T07:28:12.610Z,18.57
2019-04-20T07:29:18.503Z,18.76
2019-04-20T07:30:12.492Z,19.11
2019-04-20T07:31:08.458Z,19.43
2019-04-20T07:32:01.696Z,18.97
2019-04-20T07:33:10.458Z,19.02
2019-04-20T07:34:10.408Z,19.46
2019-04-20T07:35:09.365Z,19.68
2019-04-20T07:36:11.775Z,19.98
2019-04-20T07:37:40.240Z,20.18
2019-04-20T07:38:23.396Z,20.31
2019-04-20T07:39:13.310Z,20.25
2019-04-20T07:40:13.829Z,20.28
2019-04-20T07:41:10.226Z,19.68
2019-04-20T07:42:16.740Z,20.18
2019-04-20T07:43:04.432Z,20.08
2019-04-20T07:44:16.614Z,19.80
2019-04-20T07:45:14.837Z,19.70
2019-04-20T07:46:10.537Z,19.61
2019-04-20T07:47:13.531Z,19.08
2019-04-20T07:48:11.254Z,18.97
2019-04-20T07:49:07.298Z,19.39
2019-04-20T07:50:05.058Z,19.46
2019-04-20T07:51:00.418Z,18.68
2019-04-20T07:51:49.515Z,18.64
2019-04-20T07:53:04.432Z,19.36
2019-04-20T07:54:22.003Z,19.14
2019-04-20T07:55:31.954Z,19.25
2019-04-20T07:56:14.731Z,19.61
2019-04-20T07:57:10.220Z,19.65
2019-04-20T07:58:01.351Z,19.73
2019-04-20T07:58:55.325Z,19.83
2019-04-20T08:00:06.353Z,20.00
2019-04-20T08:01:17.866Z,20.54
2019-04-20T08:02:16.236Z,20.68
2019-04-20T08:03:03.378Z,20.72
2019-04-20T08:04:08.055Z,20.51
2019-04-20T08:05:04.405Z,20.79
2019-04-20T08:05:58.309Z,20.90
2019-04-20T08:06:53.938Z,21.35
2019-04-20T08:08:02.527Z,21.69
2019-04-20T08:09:05.755Z,21.78
2019-04-20T08:09:55.561Z,21.56
2019-04-20T08:11:07.360Z,21.30
2019-04-20T08:12:11.298Z,20.77
2019-04-20T08:14:11.186Z,21.02
2019-04-20T08:15:11.114Z,20.93
2019-04-20T08:16:06.697Z,20.81
2019-04-20T08:17:26.796Z,20.41
2019-04-20T08:18:07.437Z,19.60
2019-04-20T08:19:08.421Z,19.18
2019-04-20T08:20:05.769Z,19.08
2019-04-20T08:21:08.222Z,19.20
2019-04-20T08:22:08.001Z,19.29
2019-04-20T08:23:06.218Z,19.86
2019-04-20T08:24:07.310Z,20.39
2019-04-20T08:25:03.528Z,20.84
2019-04-20T08:26:00.393Z,21.08
2019-04-20T08:26:53.928Z,20.34
2019-04-20T08:27:48.777Z,20.30
2019-04-20T08:28:55.089Z,19.94
2019-04-20T08:29:58.779Z,20.05
2019-04-20T08:31:06.661Z,20.62
2019-04-20T08:32:08.696Z,20.41
2019-04-20T08:33:03.943Z,20.51
2019-04-20T08:34:28.523Z,19.95
2019-04-20T08:35:14.306Z,19.57
2019-04-20T08:36:14.725Z,19.75
2019-04-20T08:37:05.966Z,20.34
2019-04-20T08:38:37.262Z,20.74
2019-04-20T08:39:25.771Z,21.13
2019-04-20T08:40:13.214Z,21.51
2019-04-20T08:41:02.823Z,21.91
2019-04-20T08:42:11.648Z,21.79
2019-04-20T08:43:26.133Z,21.92
2019-04-20T08:44:32.364Z,21.90
2019-04-20T08:45:08.334Z,21.94
2019-04-20T08:46:05.316Z,21.78
2019-04-20T08:47:18.297Z,21.94
2019-04-20T08:48:11.509Z,22.02
2019-04-20T08:49:10.039Z,22.25
2019-04-20T08:50:11.605Z,22.28
2019-04-20T08:51:07.529Z,22.43
2019-04-20T08:52:22.963Z,22.54
2019-04-20T08:53:15.676Z,22.29
2019-04-20T08:54:06.838Z,22.54
2019-04-20T08:55:04.671Z,22.71
2019-04-20T08:56:00.242Z,22.83
2019-04-20T08:56:53.638Z,22.83
2019-04-20T08:57:47.679Z,23.08
2019-04-20T08:58:46.628Z,23.38
2019-04-20T08:59:48.360Z,23.50
2019-04-20T09:00:53.581Z,23.32
2019-04-20T09:01:48.865Z,22.96
2019-04-20T09:02:48.867Z,22.86
2019-04-20T09:03:59.923Z,23.14
2019-04-20T09:04:56.405Z,23.09
2019-04-20T09:05:58.963Z,23.17
2019-04-20T09:07:02.592Z,23.24
2019-04-20T09:07:56.583Z,23.34
2019-04-20T09:08:59.688Z,23.27
2019-04-20T09:10:12.303Z,22.86
2019-04-20T09:11:05.637Z,22.86
2019-04-20T09:12:05.907Z,23.15
2019-04-20T09:13:02.557Z,23.27
2019-04-20T09:13:51.894Z,23.32
2019-04-20T09:14:48.741Z,23.29
2019-04-20T09:15:47.044Z,23.22
2019-04-20T09:16:54.317Z,23.49
2019-04-20T09:17:53.005Z,23.43
2019-04-20T09:18:55.548Z,23.11
2019-04-20T09:19:55.872Z,23.22
2019-04-20T09:20:58.391Z,23.07
2019-04-20T09:21:54.927Z,22.90
2019-04-20T09:23:02.262Z,22.64
2019-04-20T09:24:04.480Z,22.59
2019-04-20T09:25:07.228Z,22.64
2019-04-20T09:26:06.025Z,22.86
2019-04-20T09:27:04.706Z,22.93
2019-04-20T09:27:56.212Z,23.14
2019-04-20T09:29:00.561Z,23.09
2019-04-20T09:30:00.218Z,23.12
2019-04-20T09:31:01.812Z,23.20
2019-04-20T09:32:08.162Z,23.01
2019-04-20T09:33:06.267Z,23.05
2019-04-20T09:34:04.572Z,23.02
2019-04-20T09:35:07.782Z,23.15
2019-04-20T09:36:02.360Z,23.35
2019-04-20T09:37:08.405Z,23.55
2019-04-20T09:38:09.098Z,23.62
2019-04-20T09:39:00.018Z,23.50
2019-04-20T09:40:10.935Z,23.32
2019-04-20T09:41:03.694Z,23.50
2019-04-20T09:41:59.655Z,23.62
2019-04-20T09:42:47.138Z,23.57
2019-04-20T09:43:47.386Z,23.29
2019-04-20T09:44:51.108Z,23.12
2019-04-20T09:45:52.263Z,23.17
2019-04-20T09:46:51.508Z,23.35
2019-04-20T09:47:51.330Z,23.39
2019-04-20T09:48:53.709Z,23.17
2019-04-20T09:49:58.153Z,23.34
2019-04-20T09:51:03.849Z,23.07
2019-04-20T09:52:01.689Z,23.02
2019-04-20T09:53:02.422Z,22.83
2019-04-20T09:53:59.729Z,22.54
2019-04-20T09:55:05.727Z,22.57
2019-04-20T09:56:01.577Z,22.44
2019-04-20T09:57:11.852Z,22.59
2019-04-20T09:58:02.074Z,22.67
2019-04-20T09:59:09.830Z,22.41
2019-04-20T10:00:04.325Z,22.34
2019-04-20T10:01:04.424Z,22.20
2019-04-20T10:01:54.696Z,21.72
2019-04-20T10:02:48.345Z,21.45
2019-04-20T10:03:47.096Z,21.41
2019-04-20T10:04:47.214Z,21.13
2019-04-20T10:05:45.916Z,21.16
2019-04-20T10:06:45.902Z,21.14
2019-04-20T10:07:49.300Z,21.13
2019-04-20T10:08:51.494Z,21.19
2019-04-20T10:09:48.622Z,21.11
2019-04-20T10:10:47.215Z,21.04
2019-04-20T10:11:47.050Z,20.87
2019-04-20T10:12:45.837Z,20.84
2019-04-20T10:13:46.039Z,20.72
2019-04-20T10:14:46.872Z,20.66
2019-04-20T10:15:45.974Z,20.54
2019-04-20T10:16:45.790Z,20.53
2019-04-20T10:17:45.777Z,20.47
2019-04-20T10:18:50.567Z,20.49
2019-04-20T10:19:48.213Z,20.56
2019-04-20T10:20:45.780Z,20.53
2019-04-20T10:21:45.764Z,20.80
2019-04-20T10:22:46.718Z,20.76
2019-04-20T10:23:45.712Z,20.87
2019-04-20T10:24:48.557Z,20.81
2019-04-20T10:25:46.821Z,20.84
2019-04-20T10:26:45.697Z,20.96
2019-04-20T10:27:45.669Z,20.95
2019-04-20T10:28:45.710Z,20.89
2019-04-20T10:29:45.883Z,20.86
2019-04-20T10:30:46.299Z,20.83
2019-04-20T10:31:51.447Z,21.13
2019-04-20T10:32:50.509Z,21.26
2019-04-20T10:33:46.585Z,21.04
2019-04-20T10:34:46.421Z,20.84
2019-04-20T10:35:45.657Z,20.90
2019-04-20T10:36:45.913Z,20.96
2019-04-20T10:37:45.594Z,21.05
2019-04-20T10:38:46.531Z,21.01
2019-04-20T10:39:46.807Z,21.05
2019-04-20T10:40:56.216Z,20.91
2019-04-20T10:41:51.262Z,20.87
2019-04-20T10:42:46.546Z,20.95
2019-04-20T10:43:46.886Z,20.77
2019-04-20T10:44:45.495Z,20.74
2019-04-20T10:45:46.677Z,20.77
2019-04-20T10:46:45.460Z,20.89
2019-04-20T10:47:45.443Z,20.91
2019-04-20T10:48:49.166Z,21.01
2019-04-20T10:49:47.055Z,21.08
2019-04-20T10:50:45.406Z,21.14
2019-04-20T10:51:45.407Z,21.41
2019-04-20T10:52:45.814Z,21.42
2019-04-20T10:53:46.459Z,21.34
2019-04-20T10:54:45.388Z,21.48
2019-04-20T10:55:45.359Z,21.54
2019-04-20T10:56:45.722Z,21.54
2019-04-20T10:57:45.857Z,21.46
2019-04-20T10:58:45.513Z,21.60
2019-04-20T10:59:45.713Z,21.71
2019-04-20T11:00:46.069Z,21.66
2019-04-20T11:01:45.664Z,21.69
2019-04-20T11:02:47.456Z,21.66
2019-04-20T11:03:45.269Z,21.71
2019-04-20T11:04:46.453Z,21.71
2019-04-20T11:05:46.660Z,21.63
2019-04-20T11:06:45.236Z,21.74
2019-04-20T11:07:46.332Z,21.72
2019-04-20T11:08:46.563Z,21.72
2019-04-20T11:09:45.206Z,21.71
2019-04-20T11:10:55.570Z,21.63
2019-04-20T11:11:46.227Z,21.60
2019-04-20T11:12:46.373Z,21.48
2019-04-20T11:13:45.589Z,21.46
2019-04-20T11:14:45.684Z,21.45
2019-04-20T11:15:46.306Z,21.54
2019-04-20T11:16:46.575Z,21.54
2019-04-20T11:17:45.789Z,21.69
2019-04-20T11:18:45.293Z,21.74
2019-04-20T11:19:45.350Z,21.94
2019-04-20T11:20:45.614Z,21.95
2019-04-20T11:21:46.312Z,22.04
2019-04-20T11:22:46.287Z,22.01
2019-04-20T11:23:45.049Z,22.06
2019-04-20T11:24:46.111Z,22.02
2019-04-20T11:25:46.283Z,22.01
2019-04-20T11:26:46.491Z,22.06
2019-04-20T11:27:45.978Z,21.60
2019-04-20T11:28:46.140Z,21.64
2019-04-20T11:29:46.307Z,21.61
2019-04-20T11:30:46.092Z,21.81
2019-04-20T11:31:49.251Z,21.75
2019-04-20T11:32:46.313Z,21.76
2019-04-20T11:33:45.887Z,21.82
2019-04-20T11:34:45.400Z,21.94
2019-04-20T11:35:46.222Z,21.99
2019-04-20T11:36:45.477Z,22.13
2019-04-20T11:37:44.973Z,22.09
2019-04-20T11:38:44.952Z,22.20
2019-04-20T11:39:45.326Z,22.16
2019-04-20T11:40:45.012Z,22.32
2019-04-20T11:41:45.724Z,22.39
2019-04-20T11:42:45.636Z,22.22
2019-04-20T11:43:44.826Z,22.17
2019-04-20T11:44:44.889Z,22.10
2019-04-20T11:45:44.791Z,21.94
2019-04-20T11:46:44.984Z,21.92
2019-04-20T11:47:45.306Z,21.75
2019-04-20T11:48:45.458Z,21.88
2019-04-20T11:49:45.791Z,21.91
2019-04-20T11:50:45.417Z,21.74
2019-04-20T11:51:45.542Z,21.79
2019-04-20T11:52:48.176Z,21.94
2019-04-20T11:53:46.092Z,22.01
2019-04-20T11:54:44.707Z,21.98
2019-04-20T11:55:44.704Z,22.07
2019-04-20T11:56:47.137Z,22.10
2019-04-20T11:57:45.238Z,22.41
2019-04-20T11:58:44.929Z,22.43
2019-04-20T11:59:45.326Z,22.39
2019-04-20T12:00:55.349Z,22.32
2019-04-20T12:01:51.897Z,22.41
2019-04-20T12:02:47.779Z,22.25
2019-04-20T12:03:56.399Z,22.23
2019-04-20T12:04:52.013Z,22.19
2019-04-20T12:05:51.263Z,22.28
2019-04-20T12:06:46.610Z,22.10
2019-04-20T12:07:44.820Z,22.09
2019-04-20T12:08:45.450Z,22.19
2019-04-20T12:09:44.543Z,22.29
2019-04-20T12:10:51.356Z,22.27
2019-04-20T12:11:59.643Z,22.20
2019-04-20T12:12:50.265Z,22.07
2019-04-20T12:13:46.758Z,21.82
2019-04-20T12:14:44.490Z,21.95
2019-04-20T12:15:45.514Z,22.06
2019-04-20T12:16:45.759Z,22.06
2019-04-20T12:17:44.452Z,22.20
2019-04-20T12:18:44.470Z,22.34
2019-04-20T12:19:44.433Z,22.35
2019-04-20T12:20:44.956Z,21.90
2019-04-20T12:21:45.508Z,21.98
2019-04-20T12:22:44.394Z,21.79
2019-04-20T12:23:44.604Z,21.74
2019-04-20T12:24:44.587Z,21.83
2019-04-20T12:25:45.007Z,22.10
2019-04-20T12:26:44.803Z,22.23
2019-04-20T12:27:50.738Z,22.28
2019-04-20T12:28:45.480Z,22.34
2019-04-20T12:29:45.653Z,22.47
2019-04-20T12:30:44.309Z,22.50
2019-04-20T12:31:51.203Z,22.54
2019-04-20T12:32:51.770Z,22.54
2019-04-20T12:33:46.492Z,22.50
2019-04-20T12:34:45.443Z,22.68
2019-04-20T12:35:44.510Z,22.64
2019-04-20T12:36:44.870Z,22.49
2019-04-20T12:37:45.097Z,22.41
2019-04-20T12:38:46.146Z,22.25
2019-04-20T12:39:44.926Z,22.25
2019-04-20T12:40:44.213Z,22.35
2019-04-20T12:41:50.449Z,22.32
2019-04-20T12:42:45.174Z,22.46
2019-04-20T12:43:45.565Z,22.57
2019-04-20T12:44:44.166Z,22.60
2019-04-20T12:45:44.236Z,22.64
2019-04-20T12:46:44.130Z,22.65
2019-04-20T12:47:46.972Z,22.64
2019-04-20T12:48:44.107Z,22.60
2019-04-20T12:49:45.392Z,22.52
2019-04-20T12:50:44.098Z,22.68
2019-04-20T12:51:52.206Z,22.68
2019-04-20T12:52:46.242Z,22.59
2019-04-20T12:53:44.531Z,22.54
2019-04-20T12:54:45.137Z,22.28
2019-04-20T12:55:44.377Z,22.38
2019-04-20T12:56:44.659Z,22.49
2019-04-20T12:57:54.479Z,22.52
2019-04-20T12:58:45.117Z,22.25
2019-04-20T12:59:46.105Z,22.32
2019-04-20T13:00:43.981Z,22.44
2019-04-20T13:01:43.951Z,22.52
2019-04-20T13:02:45.254Z,22.38
2019-04-20T13:03:43.969Z,22.46
2019-04-20T13:04:43.921Z,22.49
2019-04-20T13:05:43.932Z,22.53
2019-04-20T13:06:44.728Z,22.57
2019-04-20T13:07:47.837Z,22.60
2019-04-20T13:08:51.562Z,22.53
2019-04-20T13:09:44.874Z,22.41
2019-04-20T13:10:44.480Z,22.38
2019-04-20T13:11:51.961Z,22.53
2019-04-20T13:12:44.840Z,22.46
2019-04-20T13:13:44.248Z,22.38
2019-04-20T13:14:44.372Z,22.32
2019-04-20T13:15:44.534Z,22.19
2019-04-20T13:16:44.097Z,22.32
2019-04-20T13:17:44.369Z,22.37